createdAt,value
2019-03-10T00:01:10.503Z,96.00
2019-03-10T00:03:38.055Z,95.80
2019-03-10T00:06:05.479Z,95.90
2019-03-10T00:08:32.857Z,96.00
2019-03-10T00:11:00.543Z,96.00
2019-03-10T00:13:28.141Z,96.00
2019-03-10T00:15:55.950Z,96.20
2019-03-10T00:18:23.303Z,96.40
2019-03-10T00:20:50.894Z,96.40
2019-03-10T00:23:18.442Z,96.60
2019-03-10T00:25:46.062Z,96.60
2019-03-10T00:28:13.727Z,96.70
2019-03-10T00:30:41.043Z,96.60
2019-03-10T00:33:08.487Z,96.70
2019-03-10T00:35:35.816Z,96.70
2019-03-10T00:38:03.366Z,96.80
2019-03-10T00:41:12.430Z,96.70
2019-03-10T00:44:17.454Z,97.20
2019-03-10T00:47:35.720Z,97.00
2019-03-10T00:50:53.062Z,97.00
2019-03-10T00:53:20.752Z,97.20
2019-03-10T00:55:48.190Z,97.40
2019-03-10T00:58:15.650Z,97.40
2019-03-10T01:00:43.666Z,97.50
2019-03-10T01:03:11.467Z,97.60
2019-03-10T01:05:38.770Z,97.70
2019-03-10T01:08:06.730Z,97.70
2019-03-10T01:10:34.541Z,97.70
2019-03-10T01:13:01.970Z,97.70
2019-03-10T01:15:30.062Z,97.80
2019-03-10T01:17:58.181Z,97.70
2019-03-10T01:20:26.080Z,97.70
2019-03-10T01:22:53.462Z,97.70
2019-03-10T01:25:20.802Z,97.70
2019-03-10T01:27:48.510Z,97.80
2019-03-10T01:30:17.997Z,97.90
2019-03-10T01:33:39.098Z,97.90
2019-03-10T01:36:13.552Z,98.00
2019-03-10T01:38:41.159Z,98.00
2019-03-10T01:41:08.586Z,98.00
2019-03-10T01:43:36.043Z,98.00
2019-03-10T01:46:03.484Z,98.00
2019-03-10T01:48:31.187Z,97.90
2019-03-10T01:50:58.531Z,97.90
2019-03-10T01:53:26.108Z,97.90
2019-03-10T01:55:53.538Z,97.90
2019-03-10T01:58:21.318Z,97.90
2019-03-10T02:00:48.887Z,98.10
2019-03-10T02:03:16.232Z,98.40
2019-03-10T02:05:43.621Z,98.70
2019-03-10T02:08:11.329Z,98.60
2019-03-10T02:10:38.946Z,98.70
2019-03-10T02:13:06.325Z,98.80
2019-03-10T02:15:34.104Z,98.80
2019-03-10T02:18:01.550Z,98.80
2019-03-10T02:20:29.171Z,98.80
2019-03-10T02:22:56.746Z,98.80
2019-03-10T02:25:24.180Z,98.70
2019-03-10T02:27:51.662Z,98.90
2019-03-10T02:30:19.304Z,98.90
2019-03-10T02:32:47.045Z,98.90
2019-03-10T02:35:14.746Z,99.10
2019-03-10T02:37:42.481Z,99.40
2019-03-10T02:40:10.363Z,99.50
2019-03-10T02:42:37.847Z,99.60
2019-03-10T02:45:05.630Z,99.60
2019-03-10T02:47:33.141Z,99.80
2019-03-10T02:50:00.581Z,99.80
2019-03-10T02:52:28.349Z,99.80
2019-03-10T02:54:55.783Z,99.90
2019-03-10T02:57:23.315Z,99.90
2019-03-10T02:59:50.817Z,99.90
2019-03-10T03:02:18.184Z,99.30
2019-03-10T03:04:45.655Z,99.00
2019-03-10T03:07:13.349Z,98.70
2019-03-10T03:09:41.083Z,98.40
2019-03-10T03:12:08.557Z,98.40
2019-03-10T03:14:35.974Z,98.70
2019-03-10T03:17:03.561Z,99.10
2019-03-10T03:19:31.296Z,99.40
2019-03-10T03:21:58.691Z,99.90
2019-03-10T03:24:26.468Z,99.90
2019-03-10T03:26:54.231Z,99.90
2019-03-10T03:29:21.721Z,99.90
2019-03-10T03:31:49.150Z,99.90
2019-03-10T03:34:16.633Z,99.90
2019-03-10T03:36:44.019Z,99.90
2019-03-10T03:39:32.673Z,99.90
2019-03-10T03:42:00.196Z,99.90
2019-03-10T03:44:27.550Z,99.90
2019-03-10T03:46:54.891Z,99.90
2019-03-10T03:49:22.519Z,99.90
2019-03-10T03:51:50.275Z,99.90
2019-03-10T03:54:17.675Z,99.90
2019-03-10T03:56:45.178Z,99.90
2019-03-10T03:59:12.537Z,99.90
2019-03-10T04:01:43.949Z,99.90
2019-03-10T04:04:11.563Z,99.90
2019-03-10T04:06:39.446Z,99.90
2019-03-10T04:09:07.775Z,99.90
2019-03-10T04:11:35.214Z,99.90
2019-03-10T04:14:02.709Z,99.90
2019-03-10T04:16:30.080Z,99.90
2019-03-10T04:18:57.636Z,99.90
2019-03-10T04:21:25.060Z,99.90
2019-03-10T04:23:52.855Z,99.90
2019-03-10T04:26:20.242Z,99.90
2019-03-10T04:28:47.579Z,99.90
2019-03-10T04:31:15.054Z,99.90
2019-03-10T04:33:42.438Z,99.90
2019-03-10T04:36:09.887Z,99.90
2019-03-10T04:38:37.761Z,99.90
2019-03-10T04:41:05.179Z,99.90
2019-03-10T04:43:38.094Z,99.90
2019-03-10T04:46:05.753Z,99.90
2019-03-10T04:48:33.182Z,99.90
2019-03-10T04:51:00.510Z,99.90
2019-03-10T04:53:28.070Z,99.90
2019-03-10T04:56:06.475Z,99.90
2019-03-10T04:58:36.268Z,99.90
2019-03-10T05:01:03.927Z,99.90
2019-03-10T05:03:31.649Z,99.90
2019-03-10T05:05:59.084Z,99.90
2019-03-10T05:08:26.454Z,99.90
2019-03-10T05:10:54.029Z,99.90
2019-03-10T05:13:21.524Z,99.90
2019-03-10T05:15:48.891Z,99.90
2019-03-10T05:18:16.347Z,99.90
2019-03-10T05:20:43.940Z,99.90
2019-03-10T05:23:30.782Z,99.90
2019-03-10T05:25:58.389Z,99.90
2019-03-10T05:28:26.306Z,99.90
2019-03-10T05:30:54.120Z,99.90
2019-03-10T05:33:21.466Z,99.90
2019-03-10T05:35:48.846Z,99.90
2019-03-10T05:38:16.564Z,99.90
2019-03-10T05:40:43.987Z,99.90
2019-03-10T05:43:11.706Z,99.90
2019-03-10T05:45:39.450Z,99.90
2019-03-10T05:48:06.891Z,99.90
2019-03-10T05:50:35.195Z,99.90
2019-03-10T05:53:02.929Z,99.90
2019-03-10T05:55:30.436Z,99.90
2019-03-10T05:57:57.851Z,99.90
2019-03-10T06:00:25.166Z,99.90
2019-03-10T06:02:53.060Z,99.90
2019-03-10T06:05:20.470Z,99.90
2019-03-10T06:07:47.930Z,99.90
2019-03-10T06:10:15.371Z,99.90
2019-03-10T06:12:42.983Z,99.90
2019-03-10T06:15:10.672Z,99.90
2019-03-10T06:17:38.014Z,99.90
2019-03-10T06:20:05.417Z,99.90
2019-03-10T06:22:33.088Z,99.90
2019-03-10T06:25:00.562Z,99.90
2019-03-10T06:27:28.047Z,99.90
2019-03-10T06:29:55.632Z,99.90
2019-03-10T06:32:22.990Z,99.90
2019-03-10T06:34:50.442Z,99.90
2019-03-10T06:37:17.932Z,99.90
2019-03-10T06:39:45.421Z,99.90
2019-03-10T06:42:12.745Z,99.90
2019-03-10T06:44:40.206Z,99.90
2019-03-10T06:47:07.703Z,99.90
2019-03-10T06:49:35.186Z,99.90
2019-03-10T06:52:02.643Z,99.90
2019-03-10T06:54:30.253Z,99.90
2019-03-10T06:56:57.814Z,99.90
2019-03-10T06:59:26.362Z,99.90
2019-03-10T07:01:54.024Z,99.90
2019-03-10T07:04:21.541Z,99.90
2019-03-10T07:06:48.953Z,99.90
2019-03-10T07:09:16.683Z,99.90
2019-03-10T07:11:44.090Z,99.90
2019-03-10T07:14:12.169Z,99.90
2019-03-10T07:16:39.617Z,99.90
2019-03-10T07:19:06.980Z,99.90
2019-03-10T07:21:35.336Z,99.90
2019-03-10T07:24:02.811Z,99.90
2019-03-10T07:26:30.262Z,99.90
2019-03-10T07:29:17.335Z,99.90
2019-03-10T07:32:08.864Z,99.90
2019-03-10T07:35:04.505Z,99.90
2019-03-10T07:37:43.779Z,99.90
2019-03-10T07:40:27.854Z,99.90
2019-03-10T07:43:13.183Z,99.90
2019-03-10T07:45:54.858Z,99.90
2019-03-10T07:48:48.072Z,99.90
2019-03-10T07:51:31.025Z,99.90
2019-03-10T07:54:33.700Z,99.90
2019-03-10T07:57:19.278Z,99.90
2019-03-10T08:00:09.018Z,99.90
2019-03-10T08:02:43.345Z,99.90
2019-03-10T08:05:22.642Z,99.90
2019-03-10T08:08:13.979Z,99.90
2019-03-10T08:10:53.915Z,99.90
2019-03-10T08:13:46.696Z,99.90
2019-03-10T08:16:36.370Z,99.90
2019-03-10T08:19:23.278Z,99.90
2019-03-10T08:22:09.242Z,99.90
2019-03-10T08:25:02.295Z,99.90
2019-03-10T08:28:01.814Z,99.90
2019-03-10T08:30:45.699Z,99.90
2019-03-10T08:33:26.528Z,99.90
2019-03-10T08:36:04.224Z,99.90
2019-03-10T08:39:09.450Z,99.90
2019-03-10T08:42:02.958Z,99.90
2019-03-10T08:44:39.464Z,99.90
2019-03-10T08:47:13.446Z,99.90
2019-03-10T08:49:46.950Z,99.90
2019-03-10T08:52:36.793Z,99.90
2019-03-10T08:55:10.537Z,99.90
2019-03-10T08:58:01.845Z,99.90
2019-03-10T09:00:44.873Z,99.90
2019-03-10T09:03:30.383Z,99.90
2019-03-10T09:06:29.486Z,99.90
2019-03-10T09:09:07.741Z,99.90
2019-03-10T09:11:46.348Z,99.90
2019-03-10T09:14:23.445Z,99.90
2019-03-10T09:17:13.494Z,99.90
2019-03-10T09:19:58.818Z,99.90
2019-03-10T09:22:35.394Z,99.90
2019-03-10T09:25:16.098Z,99.90
2019-03-10T09:27:52.084Z,99.90
2019-03-10T09:30:43.956Z,99.90
2019-03-10T09:33:23.960Z,99.90
2019-03-10T09:36:11.060Z,99.90
2019-03-10T09:39:01.312Z,99.90
2019-03-10T09:41:47.326Z,99.90
2019-03-10T09:44:28.948Z,99.90
2019-03-10T09:47:08.363Z,99.90
2019-03-10T09:49:59.178Z,99.90
2019-03-10T09:52:49.364Z,99.90
2019-03-10T09:55:39.516Z,99.90
2019-03-10T09:58:17.797Z,99.90
2019-03-10T10:01:10.769Z,99.90
2019-03-10T10:04:09.983Z,99.90
2019-03-10T10:07:09.238Z,99.90
2019-03-10T10:09:54.734Z,99.90
2019-03-10T10:12:45.128Z,99.90
2019-03-10T10:15:35.826Z,99.90
2019-03-10T10:18:25.886Z,99.90
2019-03-10T10:21:21.873Z,99.90
2019-03-10T10:24:15.426Z,99.90
2019-03-10T10:26:52.470Z,99.90
2019-03-10T10:29:28.207Z,99.90
2019-03-10T10:32:13.764Z,99.90
2019-03-10T10:35:00.723Z,99.90
2019-03-10T10:37:46.507Z,99.90
2019-03-10T10:40:20.665Z,99.90
2019-03-10T10:42:59.833Z,99.90
2019-03-10T10:45:34.315Z,99.90
2019-03-10T10:48:36.566Z,99.90
2019-03-10T10:51:26.725Z,99.90
2019-03-10T10:54:16.862Z,99.90
2019-03-10T10:57:13.017Z,99.90
2019-03-10T11:00:03.425Z,99.90
2019-03-10T11:02:41.420Z,99.90
2019-03-10T11:05:27.820Z,99.90
2019-03-10T11:08:13.868Z,99.90
2019-03-10T11:11:02.123Z,99.90
2019-03-10T11:13:50.990Z,99.90
2019-03-10T11:16:49.393Z,99.90
2019-03-10T11:19:35.463Z,99.50
2019-03-10T11:22:11.700Z,99.90
2019-03-10T11:24:43.763Z,99.30
2019-03-10T11:27:26.442Z,99.70
2019-03-10T11:30:19.374Z,99.90
2019-03-10T11:33:03.078Z,99.90
2019-03-10T11:35:50.433Z,99.90
2019-03-10T11:38:23.766Z,99.90
2019-03-10T11:41:00.834Z,99.90
2019-03-10T11:43:46.676Z,99.90
2019-03-10T11:46:35.183Z,99.90
2019-03-10T11:49:31.374Z,99.90
2019-03-10T11:52:10.500Z,99.90
2019-03-10T11:54:57.559Z,99.90
2019-03-10T11:57:29.840Z,99.90
2019-03-10T12:00:15.689Z,99.90
2019-03-10T12:03:01.896Z,99.90
2019-03-10T12:05:38.619Z,99.90
2019-03-10T12:08:24.821Z,99.90
2019-03-10T12:10:52.664Z,99.90
2019-03-10T12:13:20.316Z,99.20
2019-03-10T12:15:51.380Z,98.40
2019-03-10T12:18:19.408Z,99.10
2019-03-10T12:20:47.338Z,98.00
2019-03-10T12:23:15.129Z,97.90
2019-03-10T12:25:42.678Z,96.50
2019-03-10T12:28:10.602Z,96.30
2019-03-10T12:30:38.421Z,95.80
2019-03-10T12:33:06.238Z,95.30
2019-03-10T12:35:34.897Z,95.10
2019-03-10T12:38:02.521Z,94.40
2019-03-10T12:40:35.645Z,94.00
2019-03-10T12:43:03.752Z,93.30
2019-03-10T12:45:31.249Z,92.70
2019-03-10T12:47:58.671Z,91.80
2019-03-10T12:50:26.420Z,92.00
2019-03-10T12:52:54.026Z,93.80
2019-03-10T12:55:21.454Z,91.30
2019-03-10T12:57:49.233Z,88.60
2019-03-10T13:00:17.211Z,90.10
2019-03-10T13:02:45.207Z,90.70
2019-03-10T13:05:12.761Z,87.30
2019-03-10T13:07:40.349Z,85.00
2019-03-10T13:10:07.736Z,85.60
2019-03-10T13:12:35.154Z,86.40
2019-03-10T13:15:02.740Z,89.40
2019-03-10T13:17:30.335Z,85.20
2019-03-10T13:19:58.270Z,82.30
2019-03-10T13:22:25.978Z,81.20
2019-03-10T13:24:53.769Z,80.60
2019-03-10T13:27:21.329Z,80.00
2019-03-10T13:29:49.298Z,75.50
2019-03-10T13:32:16.718Z,76.50
2019-03-10T13:34:44.163Z,74.80
2019-03-10T13:37:12.031Z,76.40
2019-03-10T13:39:39.456Z,77.60
2019-03-10T13:42:07.191Z,76.00
2019-03-10T13:44:40.838Z,74.00
2019-03-10T13:47:11.569Z,76.50
2019-03-10T13:49:39.737Z,70.10
2019-03-10T13:52:07.522Z,68.40
2019-03-10T13:54:35.387Z,67.50
2019-03-10T13:57:05.985Z,65.20
2019-03-10T13:59:33.870Z,63.60
2019-03-10T14:02:01.931Z,63.70
2019-03-10T14:04:30.112Z,65.70
2019-03-10T14:06:58.024Z,62.90
2019-03-10T14:09:25.870Z,62.70
2019-03-10T14:11:53.738Z,64.00
2019-03-10T14:14:21.319Z,64.50
2019-03-10T14:16:49.060Z,64.60
2019-03-10T14:19:16.519Z,62.20
2019-03-10T14:21:43.994Z,61.60
2019-03-10T14:24:11.590Z,62.50
2019-03-10T14:26:39.412Z,65.60
2019-03-10T14:29:07.181Z,65.00
2019-03-10T14:31:34.874Z,63.10
2019-03-10T14:34:02.636Z,62.30
2019-03-10T14:36:30.196Z,63.70
2019-03-10T14:38:58.537Z,64.00
2019-03-10T14:41:26.040Z,64.50
2019-03-10T14:43:53.471Z,63.30
2019-03-10T14:46:21.679Z,64.90
2019-03-10T14:48:49.396Z,64.30
2019-03-10T14:51:17.259Z,61.90
2019-03-10T14:53:45.671Z,62.10
2019-03-10T14:56:13.108Z,61.00
2019-03-10T14:58:41.040Z,61.80
2019-03-10T15:01:08.955Z,59.90
2019-03-10T15:03:36.499Z,58.40
2019-03-10T15:06:04.642Z,58.30
2019-03-10T15:08:32.348Z,60.90
2019-03-10T15:10:59.855Z,60.30
2019-03-10T15:13:27.776Z,59.90
2019-03-10T15:15:55.590Z,60.50
2019-03-10T15:18:23.086Z,58.80
2019-03-10T15:20:50.754Z,58.00
2019-03-10T15:23:18.227Z,60.00
2019-03-10T15:25:45.803Z,58.70
2019-03-10T15:28:18.458Z,59.00
2019-03-10T15:30:46.342Z,56.30
2019-03-10T15:33:14.199Z,56.40
2019-03-10T15:35:41.871Z,56.10
2019-03-10T15:38:09.573Z,56.80
2019-03-10T15:40:37.396Z,58.20
2019-03-10T15:43:05.184Z,57.10
2019-03-10T15:45:34.309Z,56.40
2019-03-10T15:48:02.100Z,56.40
2019-03-10T15:50:29.967Z,56.30
2019-03-10T15:52:57.479Z,54.90
2019-03-10T15:55:25.005Z,56.40
2019-03-10T15:57:55.266Z,55.30
2019-03-10T16:00:23.055Z,55.80
2019-03-10T16:02:51.443Z,55.50
2019-03-10T16:05:19.085Z,54.10
2019-03-10T16:07:46.617Z,54.90
2019-03-10T16:10:14.207Z,54.80
2019-03-10T16:12:41.974Z,54.20
2019-03-10T16:15:11.674Z,55.00
2019-03-10T16:17:39.480Z,56.10
2019-03-10T16:20:08.915Z,56.30
2019-03-10T16:22:36.528Z,56.40
2019-03-10T16:25:04.383Z,57.00
2019-03-10T16:27:31.910Z,58.70
2019-03-10T16:29:59.723Z,58.10
2019-03-10T16:32:27.345Z,58.70
2019-03-10T16:34:55.204Z,59.70
2019-03-10T16:37:23.053Z,60.00
2019-03-10T16:39:51.076Z,59.50
2019-03-10T16:42:18.563Z,58.50
2019-03-10T16:44:45.987Z,58.50
2019-03-10T16:47:13.352Z,59.00
2019-03-10T16:49:41.037Z,60.40
2019-03-10T16:52:08.555Z,59.20
2019-03-10T16:54:36.921Z,57.60
2019-03-10T16:57:04.433Z,58.20
2019-03-10T16:59:34.115Z,59.80
2019-03-10T17:02:01.453Z,62.30
2019-03-10T17:04:29.203Z,64.40
2019-03-10T17:06:56.761Z,65.20
2019-03-10T17:09:24.257Z,65.10
2019-03-10T17:11:53.951Z,66.80
2019-03-10T17:14:21.543Z,67.60
2019-03-10T17:16:54.164Z,68.70
2019-03-10T17:19:22.135Z,68.20
2019-03-10T17:21:49.571Z,69.20
2019-03-10T17:24:17.340Z,71.20
2019-03-10T17:26:44.795Z,71.40
2019-03-10T17:29:12.269Z,72.20
2019-03-10T17:31:39.735Z,73.80
2019-03-10T17:34:07.394Z,73.10
2019-03-10T17:36:34.787Z,74.20
2019-03-10T17:39:02.341Z,74.20
2019-03-10T17:41:29.942Z,75.20
2019-03-10T17:43:57.306Z,75.50
2019-03-10T17:46:25.533Z,75.60
2019-03-10T17:48:53.567Z,76.10
2019-03-10T17:51:21.184Z,76.80
2019-03-10T17:53:48.612Z,75.90
2019-03-10T17:56:22.379Z,76.70
2019-03-10T17:58:49.929Z,76.30
2019-03-10T18:01:17.712Z,74.90
2019-03-10T18:03:45.493Z,76.30
2019-03-10T18:06:12.892Z,75.80
2019-03-10T18:08:40.608Z,75.50
2019-03-10T18:11:08.375Z,76.10
2019-03-10T18:13:36.518Z,76.30
2019-03-10T18:16:13.329Z,74.00
2019-03-10T18:18:40.679Z,75.20
2019-03-10T18:21:08.178Z,75.20
2019-03-10T18:23:35.893Z,75.20
2019-03-10T18:26:03.644Z,76.60
2019-03-10T18:28:31.088Z,76.20
2019-03-10T18:30:59.376Z,74.50
2019-03-10T18:33:27.426Z,76.50
2019-03-10T18:35:55.127Z,81.90
2019-03-10T18:38:22.904Z,91.30
2019-03-10T18:40:50.433Z,93.70
2019-03-10T18:43:17.934Z,95.10
2019-03-10T18:45:45.585Z,95.80
2019-03-10T18:48:13.107Z,95.70
2019-03-10T18:50:40.856Z,96.30
2019-03-10T18:53:08.530Z,96.30
2019-03-10T18:55:35.982Z,96.90
2019-03-10T18:58:03.768Z,96.70
2019-03-10T19:00:31.156Z,96.80
2019-03-10T19:02:58.604Z,96.80
2019-03-10T19:05:26.300Z,97.10
2019-03-10T19:07:53.720Z,97.00
2019-03-10T19:10:21.353Z,98.20
2019-03-10T19:12:49.203Z,97.90
2019-03-10T19:15:17.550Z,98.20
2019-03-10T19:17:45.596Z,98.40
2019-03-10T19:20:13.060Z,98.60
2019-03-10T19:22:40.407Z,98.50
2019-03-10T19:25:08.848Z,98.90
2019-03-10T19:27:36.430Z,99.40
2019-03-10T19:30:04.665Z,99.30
2019-03-10T19:32:32.099Z,99.70
2019-03-10T19:34:59.830Z,99.60
2019-03-10T19:37:27.417Z,99.50
2019-03-10T19:39:54.853Z,99.80
2019-03-10T19:42:22.890Z,99.80
2019-03-10T19:44:50.833Z,99.80
2019-03-10T19:47:18.243Z,99.60
2019-03-10T19:49:46.225Z,99.40
2019-03-10T19:52:13.563Z,99.20
2019-03-10T19:54:41.178Z,99.50
2019-03-10T19:57:08.874Z,99.60
2019-03-10T19:59:36.647Z,99.00
2019-03-10T20:02:04.428Z,99.10
2019-03-10T20:04:32.439Z,99.10
2019-03-10T20:06:59.745Z,99.40
2019-03-10T20:09:27.412Z,99.30
2019-03-10T20:11:55.755Z,99.10
2019-03-10T20:14:23.278Z,99.20
2019-03-10T20:16:51.160Z,99.20
2019-03-10T20:19:18.696Z,99.10
2019-03-10T20:21:46.652Z,99.30
2019-03-10T20:24:14.133Z,99.30
2019-03-10T20:26:41.480Z,99.60
2019-03-10T20:29:09.142Z,99.60
2019-03-10T20:31:36.885Z,99.50
2019-03-10T20:34:04.771Z,99.70
2019-03-10T20:36:33.502Z,99.10
2019-03-10T20:39:00.865Z,98.90
2019-03-10T20:41:28.277Z,98.70
2019-03-10T20:43:56.116Z,98.70
2019-03-10T20:46:24.300Z,98.90
2019-03-10T20:48:51.927Z,98.70
2019-03-10T20:51:19.314Z,98.90
2019-03-10T20:53:46.855Z,98.70
2019-03-10T20:56:14.558Z,98.80
2019-03-10T20:58:41.877Z,98.80
2019-03-10T21:01:09.678Z,98.80
2019-03-10T21:03:37.280Z,98.70
2019-03-10T21:06:04.878Z,98.90
2019-03-10T21:08:32.610Z,98.90
2019-03-10T21:11:00.487Z,99.10
2019-03-10T21:13:28.205Z,99.10
2019-03-10T21:15:56.318Z,99.00
2019-03-10T21:18:23.801Z,98.90
2019-03-10T21:20:51.140Z,98.90
2019-03-10T21:23:18.880Z,99.10
2019-03-10T21:25:46.561Z,99.20
2019-03-10T21:28:14.553Z,99.30
2019-03-10T21:30:42.233Z,99.40
2019-03-10T21:33:09.670Z,99.60
2019-03-10T21:35:39.170Z,99.10
2019-03-10T21:38:07.018Z,99.30
2019-03-10T21:40:34.464Z,99.40
2019-03-10T21:43:02.345Z,99.50
2019-03-10T21:45:29.779Z,99.50
2019-03-10T21:47:57.211Z,99.80
2019-03-10T21:50:24.724Z,99.70
2019-03-10T21:52:52.107Z,99.60
2019-03-10T21:55:19.448Z,99.50
2019-03-10T21:57:47.147Z,99.10
2019-03-10T22:00:14.783Z,97.80
2019-03-10T22:02:50.891Z,96.90
2019-03-10T22:05:18.634Z,95.80
2019-03-10T22:07:46.132Z,94.30
2019-03-10T22:10:13.778Z,94.30
2019-03-10T22:12:41.514Z,93.70
2019-03-10T22:15:10.710Z,93.40
2019-03-10T22:17:38.234Z,93.20
2019-03-10T22:20:05.731Z,92.90
2019-03-10T22:22:35.780Z,92.80
2019-03-10T22:25:12.149Z,93.00
2019-03-10T22:27:32.191Z,93.30
2019-03-10T22:29:59.470Z,92.60
2019-03-10T22:32:27.093Z,92.30
2019-03-10T22:34:54.726Z,92.40
2019-03-10T22:37:22.734Z,92.50
2019-03-10T22:39:50.037Z,92.00
2019-03-10T22:42:17.416Z,92.10
2019-03-10T22:44:46.547Z,91.40
2019-03-10T22:47:14.279Z,91.30
2019-03-10T22:49:41.728Z,91.10
2019-03-10T22:52:09.146Z,90.80
2019-03-10T22:54:36.519Z,90.80
2019-03-10T22:57:04.542Z,90.30
2019-03-10T22:59:31.949Z,90.70
2019-03-10T23:01:59.847Z,90.90
2019-03-10T23:04:27.517Z,90.40
2019-03-10T23:06:55.217Z,90.50
2019-03-10T23:09:22.770Z,90.20
2019-03-10T23:11:50.195Z,90.30
2019-03-10T23:14:17.487Z,90.20
2019-03-10T23:16:45.086Z,89.30
2019-03-10T23:19:12.482Z,90.30
2019-03-10T23:21:39.925Z,89.80
2019-03-10T23:24:07.631Z,89.90
2019-03-10T23:26:34.965Z,88.70
2019-03-10T23:29:02.397Z,89.50
2019-03-10T23:31:29.930Z,89.90
2019-03-10T23:33:57.377Z,90.00
2019-03-10T23:36:24.743Z,89.40
2019-03-10T23:38:52.106Z,89.30
2019-03-10T23:41:19.735Z,90.00
2019-03-10T23:43:47.401Z,89.60
2019-03-10T23:46:15.016Z,90.00
2019-03-10T23:48:42.658Z,89.80
2019-03-10T23:51:09.996Z,90.20
2019-03-10T23:53:37.418Z,90.50
2019-03-10T23:56:04.884Z,90.50
2019-03-10T23:58:32.307Z,90.50
